createdAt,value
2023-04-18T00:01:32.453Z,68.62
2023-04-18T00:03:59.353Z,69.19
2023-04-18T00:06:26.710Z,69.34
2023-04-18T00:08:53.373Z,70.96
2023-04-18T00:11:20.795Z,71.93
2023-04-18T00:13:47.520Z,71.81
2023-04-18T00:16:14.423Z,70.28
2023-04-18T00:18:41.154Z,70.18
2023-04-18T00:21:08.791Z,69.72
2023-04-18T00:23:36.021Z,70.09
2023-04-18T00:26:03.184Z,70.88
2023-04-18T00:28:29.814Z,71.25
2023-04-18T00:30:56.771Z,70.63
2023-04-18T00:33:23.462Z,70.02
2023-04-18T00:35:50.036Z,70.27
2023-04-18T00:38:16.716Z,69.83
2023-04-18T00:40:43.425Z,69.85
2023-04-18T00:43:13.427Z,70.06
2023-04-18T00:45:40.080Z,69.67
2023-04-18T00:48:07.003Z,69.22
2023-04-18T00:50:33.768Z,69.32
2023-04-18T00:53:00.598Z,69.38
2023-04-18T00:55:27.253Z,69.36
2023-04-18T00:57:53.905Z,69.83
2023-04-18T01:00:20.514Z,69.32
2023-04-18T01:02:49.880Z,69.66
2023-04-18T01:05:18.527Z,69.34
2023-04-18T01:07:45.587Z,69.44
2023-04-18T01:10:12.367Z,69.62
2023-04-18T01:12:39.369Z,69.41
2023-04-18T01:15:06.703Z,69.56
2023-04-18T01:17:36.137Z,69.60
2023-04-18T01:20:05.549Z,69.59
2023-04-18T01:22:33.370Z,69.35
2023-04-18T01:25:00.127Z,69.47
2023-04-18T01:27:26.771Z,69.22
2023-04-18T01:29:53.362Z,68.77
2023-04-18T01:32:20.574Z,69.15
2023-04-18T01:34:47.714Z,69.19
2023-04-18T01:37:14.533Z,69.15
2023-04-18T01:39:41.127Z,69.71
2023-04-18T01:42:07.855Z,69.66
2023-04-18T01:44:34.488Z,69.74
2023-04-18T01:47:01.201Z,69.93
2023-04-18T01:49:27.859Z,69.49
2023-04-18T01:51:54.461Z,69.84
2023-04-18T01:54:21.237Z,70.26
2023-04-18T01:56:47.910Z,69.64
2023-04-18T01:59:14.551Z,69.48
2023-04-18T02:01:41.149Z,69.93
2023-04-18T02:04:07.844Z,70.25
2023-04-18T02:06:34.535Z,69.94
2023-04-18T02:09:01.166Z,69.59
2023-04-18T02:11:27.772Z,69.94
2023-04-18T02:13:54.385Z,69.98
2023-04-18T02:16:21.019Z,69.87
2023-04-18T02:18:47.752Z,71.54
2023-04-18T02:21:14.357Z,71.93
2023-04-18T02:23:41.047Z,70.76
2023-04-18T02:26:07.710Z,70.60
2023-04-18T02:28:34.410Z,70.39
2023-04-18T02:31:01.294Z,70.63
2023-04-18T02:33:27.960Z,70.77
2023-04-18T02:35:54.538Z,70.77
2023-04-18T02:38:21.161Z,71.16
2023-04-18T02:40:47.753Z,70.13
2023-04-18T02:43:14.373Z,70.62
2023-04-18T02:45:41.634Z,70.59
2023-04-18T02:48:08.368Z,70.13
2023-04-18T02:50:35.560Z,70.01
2023-04-18T02:53:02.204Z,71.03
2023-04-18T02:55:28.936Z,71.41
2023-04-18T02:57:55.976Z,72.65
2023-04-18T03:00:22.742Z,72.97
2023-04-18T03:02:49.557Z,71.37
2023-04-18T03:05:16.591Z,70.51
2023-04-18T03:07:43.174Z,71.04
2023-04-18T03:10:10.310Z,71.12
2023-04-18T03:12:36.991Z,70.28
2023-04-18T03:15:03.849Z,70.25
2023-04-18T03:17:31.782Z,70.97
2023-04-18T03:19:58.453Z,71.01
2023-04-18T03:22:25.106Z,70.83
2023-04-18T03:24:51.801Z,70.52
2023-04-18T03:27:18.722Z,71.86
2023-04-18T03:29:45.402Z,71.26
2023-04-18T03:32:12.687Z,74.19
2023-04-18T03:34:39.275Z,73.86
2023-04-18T03:37:05.894Z,71.71
2023-04-18T03:39:32.497Z,70.95
2023-04-18T03:41:59.092Z,72.00
2023-04-18T03:44:25.715Z,71.06
2023-04-18T03:46:52.410Z,70.99
2023-04-18T03:49:18.980Z,70.65
2023-04-18T03:51:49.904Z,70.75
2023-04-18T03:54:17.226Z,72.66
2023-04-18T03:56:45.234Z,72.69
2023-04-18T03:59:12.058Z,71.58
2023-04-18T04:01:38.716Z,71.15
2023-04-18T04:04:05.619Z,70.92
2023-04-18T04:06:32.293Z,71.01
2023-04-18T04:08:58.922Z,70.71
2023-04-18T04:11:26.057Z,70.39
2023-04-18T04:13:52.933Z,70.53
2023-04-18T04:16:19.648Z,70.87
2023-04-18T04:18:46.321Z,71.36
2023-04-18T04:21:13.103Z,70.89
2023-04-18T04:23:42.704Z,70.58
2023-04-18T04:26:09.603Z,71.09
2023-04-18T04:28:36.262Z,70.83
2023-04-18T04:31:06.388Z,70.91
2023-04-18T04:33:33.394Z,70.75
2023-04-18T04:36:01.305Z,70.36
2023-04-18T04:38:31.022Z,70.48
2023-04-18T04:40:58.515Z,70.47
2023-04-18T04:43:28.681Z,70.05
2023-04-18T04:45:55.948Z,70.07
2023-04-18T04:48:24.463Z,70.21
2023-04-18T04:50:53.675Z,70.19
2023-04-18T04:53:20.467Z,69.89
2023-04-18T04:55:47.196Z,69.88
2023-04-18T04:58:13.897Z,69.90
2023-04-18T05:00:40.544Z,70.18
2023-04-18T05:03:08.375Z,70.84
2023-04-18T05:05:35.358Z,70.72
2023-04-18T05:08:02.509Z,70.71
2023-04-18T05:10:29.563Z,70.33
2023-04-18T05:12:56.790Z,70.65
2023-04-18T05:15:24.094Z,70.41
2023-04-18T05:17:50.822Z,70.30
2023-04-18T05:20:17.454Z,70.37
2023-04-18T05:22:44.071Z,70.18
2023-04-18T05:25:10.740Z,70.22
2023-04-18T05:27:37.386Z,70.00
2023-04-18T05:30:04.382Z,70.20
2023-04-18T05:32:31.125Z,70.04
2023-04-18T05:34:57.769Z,70.56
2023-04-18T05:37:24.476Z,70.38
2023-04-18T05:39:51.142Z,70.66
2023-04-18T05:42:17.776Z,70.25
2023-04-18T05:44:44.368Z,71.05
2023-04-18T05:47:10.998Z,71.46
2023-04-18T05:49:37.619Z,71.46
2023-04-18T05:52:04.462Z,71.63
2023-04-18T05:54:31.095Z,71.06
2023-04-18T05:56:58.477Z,71.32
2023-04-18T05:59:26.812Z,71.47
2023-04-18T06:01:53.578Z,70.90
2023-04-18T06:04:21.259Z,70.92
2023-04-18T06:06:48.127Z,70.72
2023-04-18T06:09:14.730Z,70.68
2023-04-18T06:11:41.309Z,70.52
2023-04-18T06:14:07.950Z,70.64
2023-04-18T06:16:36.621Z,70.62
2023-04-18T06:19:05.292Z,70.45
2023-04-18T06:21:32.190Z,70.81
2023-04-18T06:23:59.018Z,70.68
2023-04-18T06:26:25.647Z,71.48
2023-04-18T06:28:52.423Z,71.57
2023-04-18T06:31:19.128Z,71.90
2023-04-18T06:33:45.731Z,72.36
2023-04-18T06:36:12.375Z,72.36
2023-04-18T06:38:38.977Z,72.56
2023-04-18T06:41:05.672Z,73.14
2023-04-18T06:43:32.313Z,72.85
2023-04-18T06:45:59.495Z,73.15
2023-04-18T06:48:26.152Z,73.21
2023-04-18T06:50:52.867Z,72.97
2023-04-18T06:53:19.619Z,73.64
2023-04-18T06:55:46.321Z,72.96
2023-04-18T06:58:14.123Z,73.25
2023-04-18T07:00:40.789Z,73.77
2023-04-18T07:03:11.431Z,73.92
2023-04-18T07:05:41.603Z,74.39
2023-04-18T07:08:08.260Z,75.14
2023-04-18T07:10:34.942Z,75.46
2023-04-18T07:13:01.727Z,74.96
2023-04-18T07:15:28.689Z,75.12
2023-04-18T07:17:55.385Z,75.92
2023-04-18T07:20:22.033Z,76.20
2023-04-18T07:22:49.034Z,76.29
2023-04-18T07:25:15.702Z,75.81
2023-04-18T07:27:42.492Z,77.08
2023-04-18T07:30:09.648Z,77.28
2023-04-18T07:32:36.343Z,75.97
2023-04-18T07:35:03.508Z,76.20
2023-04-18T07:37:30.362Z,75.73
2023-04-18T07:39:57.026Z,78.16
2023-04-18T07:42:23.647Z,78.08
2023-04-18T07:44:50.489Z,77.51
2023-04-18T07:47:22.293Z,77.12
2023-04-18T07:49:49.210Z,76.91
2023-04-18T07:52:15.853Z,76.95
2023-04-18T07:54:42.478Z,77.33
2023-04-18T07:57:09.080Z,77.21
2023-04-18T07:59:36.087Z,77.18
2023-04-18T08:02:03.100Z,76.74
2023-04-18T08:04:30.588Z,76.11
2023-04-18T08:06:57.356Z,76.20
2023-04-18T08:09:24.072Z,76.12
2023-04-18T08:11:50.754Z,76.10
2023-04-18T08:14:17.387Z,75.78
2023-04-18T08:16:44.090Z,76.03
2023-04-18T08:19:10.838Z,76.37
2023-04-18T08:21:37.567Z,77.41
2023-04-18T08:24:04.241Z,77.63
2023-04-18T08:26:30.861Z,77.10
2023-04-18T08:28:57.774Z,78.27
2023-04-18T08:31:24.826Z,77.36
2023-04-18T08:33:51.527Z,77.50
2023-04-18T08:36:18.156Z,77.62
2023-04-18T08:38:44.781Z,77.63
2023-04-18T08:41:11.497Z,78.09
2023-04-18T08:43:38.172Z,78.03
2023-04-18T08:46:04.964Z,77.61
2023-04-18T08:48:31.636Z,77.62
2023-04-18T08:50:59.551Z,77.58
2023-04-18T08:53:26.965Z,77.20
2023-04-18T08:55:58.047Z,76.87
2023-04-18T08:58:27.194Z,76.75
2023-04-18T09:00:54.882Z,76.07
2023-04-18T09:03:41.456Z,76.39
2023-04-18T09:06:13.887Z,76.41
2023-04-18T09:08:43.446Z,77.17
2023-04-18T09:11:23.365Z,76.72
2023-04-18T09:13:50.525Z,76.66
2023-04-18T09:16:20.771Z,76.77
2023-04-18T09:19:13.429Z,76.69
2023-04-18T09:21:42.883Z,77.85
2023-04-18T09:24:21.251Z,77.75
2023-04-18T09:26:49.863Z,78.15
2023-04-18T09:29:22.518Z,78.00
2023-04-18T09:32:09.514Z,78.08
2023-04-18T09:34:42.552Z,77.67
2023-04-18T09:37:13.986Z,77.10
2023-04-18T09:39:44.926Z,77.04
2023-04-18T09:42:12.533Z,77.02
2023-04-18T09:44:58.739Z,78.10
2023-04-18T09:47:27.287Z,77.35
2023-04-18T09:49:54.364Z,76.77
2023-04-18T09:52:22.953Z,77.47
2023-04-18T09:54:54.215Z,77.57
2023-04-18T09:57:21.800Z,78.05
2023-04-18T09:59:55.066Z,77.96
2023-04-18T10:02:22.998Z,77.87
2023-04-18T10:04:53.761Z,77.39
2023-04-18T10:07:21.152Z,76.86
2023-04-18T10:09:49.237Z,77.05
2023-04-18T10:12:17.483Z,76.92
2023-04-18T10:14:44.631Z,76.79
2023-04-18T10:17:11.895Z,77.02
2023-04-18T10:19:42.093Z,77.45
2023-04-18T10:22:08.848Z,76.86
2023-04-18T10:24:54.572Z,76.69
2023-04-18T10:27:49.019Z,76.71
2023-04-18T10:30:16.803Z,76.33
2023-04-18T10:32:43.671Z,76.36
2023-04-18T10:35:10.897Z,76.49
2023-04-18T10:37:59.881Z,76.19
2023-04-18T10:40:35.323Z,75.94
2023-04-18T10:43:02.208Z,75.67
2023-04-18T10:45:36.393Z,75.48
2023-04-18T10:48:24.207Z,75.53
2023-04-18T10:51:17.093Z,75.66
2023-04-18T10:53:54.012Z,76.17
2023-04-18T10:56:20.839Z,76.25
2023-04-18T10:58:52.352Z,76.11
2023-04-18T11:01:31.731Z,75.79
2023-04-18T11:03:59.628Z,75.45
2023-04-18T11:06:31.271Z,75.07
2023-04-18T11:09:11.832Z,74.97
2023-04-18T11:11:38.724Z,75.00
2023-04-18T11:14:05.518Z,75.36
2023-04-18T11:16:34.135Z,74.98
2023-04-18T11:19:01.064Z,75.26
2023-04-18T11:21:30.738Z,75.03
2023-04-18T11:23:58.537Z,74.63
2023-04-18T11:26:26.747Z,74.13
2023-04-18T11:28:57.472Z,73.90
2023-04-18T11:31:24.968Z,75.07
2023-04-18T11:33:52.430Z,74.76
2023-04-18T11:36:19.121Z,73.39
2023-04-18T11:38:46.221Z,72.85
2023-04-18T11:41:14.648Z,73.79
2023-04-18T11:43:46.058Z,73.48
2023-04-18T11:46:13.929Z,73.58
2023-04-18T11:48:42.387Z,73.06
2023-04-18T11:51:29.679Z,73.51
2023-04-18T11:53:56.278Z,73.61
2023-04-18T11:56:22.894Z,72.91
2023-04-18T11:58:49.619Z,73.04
2023-04-18T12:01:20.546Z,72.75
2023-04-18T12:04:07.128Z,72.88
2023-04-18T12:07:00.167Z,72.72
2023-04-18T12:09:26.764Z,71.85
2023-04-18T12:12:01.048Z,72.24
2023-04-18T12:14:28.440Z,73.32
2023-04-18T12:16:55.590Z,73.22
2023-04-18T12:19:30.000Z,72.53
2023-04-18T12:22:01.475Z,72.92
2023-04-18T12:24:32.222Z,72.52
2023-04-18T12:26:59.775Z,72.91
2023-04-18T12:29:28.589Z,72.50
2023-04-18T12:31:55.700Z,72.09
2023-04-18T12:34:22.366Z,71.73
2023-04-18T12:36:49.005Z,71.65
2023-04-18T12:39:15.607Z,72.51
2023-04-18T12:41:43.452Z,72.23
2023-04-18T12:44:10.166Z,71.54
2023-04-18T12:46:36.807Z,72.07
2023-04-18T12:49:03.569Z,72.15
2023-04-18T12:51:30.235Z,73.97
2023-04-18T12:53:56.846Z,74.43
2023-04-18T12:56:23.704Z,75.14
2023-04-18T12:58:50.755Z,75.19
2023-04-18T13:01:17.459Z,74.21
2023-04-18T13:03:45.588Z,74.04
2023-04-18T13:06:15.687Z,72.74
2023-04-18T13:08:42.779Z,73.20
2023-04-18T13:11:09.422Z,72.71
2023-04-18T13:13:36.297Z,72.33
2023-04-18T13:16:02.967Z,73.40
2023-04-18T13:18:29.574Z,74.20
2023-04-18T13:20:56.306Z,74.51
2023-04-18T13:23:22.898Z,74.37
2023-04-18T13:25:49.528Z,73.45
2023-04-18T13:28:16.119Z,74.34
2023-04-18T13:30:42.753Z,74.62
2023-04-18T13:33:10.305Z,75.61
2023-04-18T13:35:37.174Z,74.92
2023-04-18T13:38:04.050Z,74.33
2023-04-18T13:40:30.738Z,74.06
2023-04-18T13:42:57.367Z,72.89
2023-04-18T13:45:23.957Z,72.64
2023-04-18T13:47:50.924Z,73.84
2023-04-18T13:50:17.577Z,74.54
2023-04-18T13:52:44.200Z,74.98
2023-04-18T13:55:10.929Z,76.09
2023-04-18T13:57:37.626Z,77.11
2023-04-18T14:00:06.589Z,77.05
2023-04-18T14:02:33.485Z,76.68
2023-04-18T14:05:00.412Z,76.03
2023-04-18T14:07:27.194Z,75.27
2023-04-18T14:09:54.030Z,75.48
2023-04-18T14:12:21.116Z,75.32
2023-04-18T14:14:47.969Z,76.26
2023-04-18T14:17:14.645Z,75.70
2023-04-18T14:19:41.529Z,76.08
2023-04-18T14:22:08.157Z,76.12
2023-04-18T14:24:37.631Z,76.97
2023-04-18T14:27:04.500Z,76.59
2023-04-18T14:29:31.209Z,75.92
2023-04-18T14:31:57.967Z,75.06
2023-04-18T14:34:24.633Z,76.82
2023-04-18T14:36:51.275Z,76.38
2023-04-18T14:39:17.898Z,76.25
2023-04-18T14:41:45.883Z,77.05
2023-04-18T14:44:13.608Z,76.56
2023-04-18T14:46:40.369Z,76.41
2023-04-18T14:49:07.044Z,76.63
2023-04-18T14:51:33.678Z,75.92
2023-04-18T14:54:00.495Z,75.56
2023-04-18T14:56:27.308Z,75.83
2023-04-18T14:58:53.903Z,75.20
2023-04-18T15:01:20.612Z,73.85
2023-04-18T15:03:47.724Z,73.17
2023-04-18T15:06:14.537Z,72.65
2023-04-18T15:08:44.145Z,72.44
2023-04-18T15:11:10.797Z,72.03
2023-04-18T15:13:37.397Z,73.03
2023-04-18T15:16:04.195Z,74.79
2023-04-18T15:18:30.882Z,76.87
2023-04-18T15:20:59.696Z,76.76
2023-04-18T15:23:26.578Z,76.51
2023-04-18T15:25:53.227Z,75.43
2023-04-18T15:28:19.914Z,74.81
2023-04-18T15:30:46.733Z,74.14
2023-04-18T15:33:13.918Z,73.91
2023-04-18T15:35:40.538Z,73.60
2023-04-18T15:38:07.334Z,75.85
2023-04-18T15:40:36.235Z,75.45
2023-04-18T15:43:03.157Z,75.06
2023-04-18T15:45:30.237Z,74.39
2023-04-18T15:47:56.900Z,74.09
2023-04-18T15:50:24.266Z,74.10
2023-04-18T15:52:50.901Z,73.85
2023-04-18T15:55:17.560Z,73.02
2023-04-18T15:57:44.255Z,73.17
2023-04-18T16:00:18.029Z,72.96
2023-04-18T16:02:45.989Z,73.29
2023-04-18T16:05:13.868Z,72.85
2023-04-18T16:07:41.442Z,72.80
2023-04-18T16:10:10.489Z,73.10
2023-04-18T16:12:38.371Z,73.28
2023-04-18T16:15:09.497Z,73.69
2023-04-18T16:17:37.541Z,73.62
2023-04-18T16:20:06.293Z,74.66
2023-04-18T16:22:33.187Z,75.21
2023-04-18T16:24:59.950Z,75.78
2023-04-18T16:27:26.611Z,75.13
2023-04-18T16:29:53.918Z,74.56
2023-04-18T16:32:21.228Z,74.36
2023-04-18T16:34:48.555Z,74.58
2023-04-18T16:37:15.556Z,74.08
2023-04-18T16:39:42.214Z,74.16
2023-04-18T16:42:08.852Z,74.68
2023-04-18T16:44:35.463Z,74.48
2023-04-18T16:47:02.150Z,74.25
2023-04-18T16:49:28.802Z,74.67
2023-04-18T16:51:55.420Z,74.66
2023-04-18T16:54:22.030Z,75.38
2023-04-18T16:56:48.770Z,75.10
2023-04-18T16:59:15.396Z,75.16
2023-04-18T17:01:42.157Z,74.76
2023-04-18T17:04:08.871Z,74.63
2023-04-18T17:06:35.584Z,74.86
2023-04-18T17:09:02.265Z,74.28
2023-04-18T17:11:28.922Z,74.74
2023-04-18T17:13:56.383Z,74.88
2023-04-18T17:16:23.119Z,73.92
2023-04-18T17:18:49.777Z,72.89
2023-04-18T17:21:16.427Z,72.45
2023-04-18T17:23:43.115Z,72.57
2023-04-18T17:26:09.984Z,71.89
2023-04-18T17:28:37.052Z,71.82
2023-04-18T17:31:03.936Z,72.02
2023-04-18T17:33:31.336Z,71.41
2023-04-18T17:35:58.590Z,71.22
2023-04-18T17:38:25.384Z,71.18
2023-04-18T17:41:02.435Z,71.32
2023-04-18T17:43:29.544Z,70.90
2023-04-18T17:45:59.773Z,70.69
2023-04-18T17:48:26.475Z,70.46
2023-04-18T17:50:53.103Z,70.42
2023-04-18T17:53:19.798Z,70.19
2023-04-18T17:55:48.903Z,70.15
2023-04-18T17:58:16.943Z,70.14
2023-04-18T18:00:43.771Z,70.07
2023-04-18T18:03:13.901Z,70.26
2023-04-18T18:05:41.573Z,70.24
2023-04-18T18:08:08.229Z,69.89
2023-04-18T18:10:34.916Z,69.73
2023-04-18T18:13:01.669Z,69.72
2023-04-18T18:15:28.564Z,69.76
2023-04-18T18:17:55.765Z,69.50
2023-04-18T18:20:22.878Z,69.65
2023-04-18T18:22:49.645Z,69.64
2023-04-18T18:25:16.436Z,69.91
2023-04-18T18:27:43.082Z,69.95
2023-04-18T18:30:10.028Z,69.97
2023-04-18T18:32:36.705Z,70.43
2023-04-18T18:35:05.655Z,70.32
2023-04-18T18:37:33.087Z,70.30
2023-04-18T18:39:59.974Z,70.20
2023-04-18T18:42:26.620Z,69.97
2023-04-18T18:44:53.239Z,69.96
2023-04-18T18:47:19.958Z,70.15
2023-04-18T18:49:47.475Z,70.15
2023-04-18T18:52:14.280Z,69.85
2023-04-18T18:54:40.973Z,69.83
2023-04-18T18:57:08.879Z,69.80
2023-04-18T18:59:35.876Z,69.69
2023-04-18T19:02:02.714Z,69.83
2023-04-18T19:04:29.605Z,69.83
2023-04-18T19:06:56.332Z,69.96
2023-04-18T19:09:22.999Z,69.70
2023-04-18T19:11:49.757Z,69.78
2023-04-18T19:14:16.453Z,69.61
2023-04-18T19:16:43.200Z,69.80
2023-04-18T19:19:10.261Z,70.10
2023-04-18T19:21:36.972Z,70.54
2023-04-18T19:24:03.770Z,70.45
2023-04-18T19:26:30.456Z,70.69
2023-04-18T19:28:57.207Z,70.95
2023-04-18T19:31:23.922Z,71.33
2023-04-18T19:33:50.690Z,71.50
2023-04-18T19:36:17.309Z,71.19
2023-04-18T19:38:43.908Z,70.99
2023-04-18T19:41:10.672Z,70.83
2023-04-18T19:43:38.531Z,70.74
2023-04-18T19:46:05.324Z,70.95
2023-04-18T19:48:32.040Z,71.05
2023-04-18T19:50:58.758Z,70.69
2023-04-18T19:53:25.930Z,71.28
2023-04-18T19:55:53.831Z,71.27
2023-04-18T19:58:44.992Z,72.10
2023-04-18T20:01:12.888Z,71.22
2023-04-18T20:03:40.503Z,71.03
2023-04-18T20:06:07.673Z,70.68
2023-04-18T20:08:39.056Z,70.43
2023-04-18T20:11:10.462Z,70.56
2023-04-18T20:13:37.802Z,70.64
2023-04-18T20:16:09.014Z,70.54
2023-04-18T20:18:41.032Z,70.35
2023-04-18T20:21:08.911Z,70.29
2023-04-18T20:23:36.750Z,70.29
2023-04-18T20:26:04.411Z,70.40
2023-04-18T20:28:31.841Z,70.42
2023-04-18T20:30:58.952Z,70.51
2023-04-18T20:33:25.808Z,70.51
2023-04-18T20:35:54.751Z,72.48
2023-04-18T20:38:25.860Z,74.45
2023-04-18T20:40:53.307Z,73.57
2023-04-18T20:43:20.160Z,72.26
2023-04-18T20:45:51.059Z,71.84
2023-04-18T20:48:18.520Z,71.88
2023-04-18T20:50:51.013Z,71.19
2023-04-18T20:53:21.457Z,71.45
2023-04-18T20:55:48.901Z,71.73
2023-04-18T20:58:15.814Z,71.83
2023-04-18T21:00:43.707Z,71.67
2023-04-18T21:03:13.324Z,71.53
2023-04-18T21:05:40.275Z,71.52
2023-04-18T21:08:06.915Z,71.36
2023-04-18T21:10:34.042Z,71.11
2023-04-18T21:13:00.627Z,71.07
2023-04-18T21:15:27.260Z,70.86
2023-04-18T21:17:53.981Z,70.92
2023-04-18T21:20:20.718Z,71.10
2023-04-18T21:22:47.311Z,70.95
2023-04-18T21:25:13.917Z,70.97
2023-04-18T21:27:40.588Z,71.00
2023-04-18T21:30:07.850Z,70.99
2023-04-18T21:32:34.546Z,70.71
2023-04-18T21:35:01.638Z,70.70
2023-04-18T21:37:28.352Z,70.91
2023-04-18T21:39:55.215Z,70.86
2023-04-18T21:42:21.823Z,70.89
2023-04-18T21:44:48.481Z,70.96
2023-04-18T21:47:15.086Z,70.83
2023-04-18T21:49:42.731Z,70.96
2023-04-18T21:52:09.410Z,70.98
2023-04-18T21:54:36.041Z,70.92
2023-04-18T21:57:02.810Z,71.04
2023-04-18T21:59:29.889Z,70.84
2023-04-18T22:01:56.650Z,70.84
2023-04-18T22:04:26.060Z,70.81
2023-04-18T22:06:56.958Z,70.86
2023-04-18T22:09:23.745Z,70.65
2023-04-18T22:11:56.842Z,70.55
2023-04-18T22:14:24.940Z,70.78
2023-04-18T22:16:51.776Z,70.67
2023-04-18T22:19:19.301Z,70.37
2023-04-18T22:21:46.218Z,70.46
2023-04-18T22:24:13.050Z,70.38
2023-04-18T22:26:40.379Z,70.67
2023-04-18T22:29:06.990Z,71.26
2023-04-18T22:31:33.733Z,71.11
2023-04-18T22:34:00.348Z,70.81
2023-04-18T22:36:27.780Z,71.25
2023-04-18T22:38:54.500Z,71.37
2023-04-18T22:41:21.289Z,71.45
2023-04-18T22:43:47.908Z,71.32
2023-04-18T22:46:14.599Z,71.27
2023-04-18T22:48:41.251Z,71.32
2023-04-18T22:51:07.858Z,72.74
2023-04-18T22:53:34.564Z,71.60
2023-04-18T22:56:01.166Z,71.09
2023-04-18T22:58:27.860Z,70.89
2023-04-18T23:00:54.516Z,71.00
2023-04-18T23:03:21.283Z,71.34
2023-04-18T23:05:47.996Z,71.51
2023-04-18T23:08:14.614Z,71.58
2023-04-18T23:10:41.227Z,71.41
2023-04-18T23:13:07.838Z,71.15
2023-04-18T23:15:34.471Z,70.95
2023-04-18T23:18:01.157Z,70.62
2023-04-18T23:20:27.842Z,70.93
2023-04-18T23:22:55.448Z,71.32
2023-04-18T23:25:22.154Z,71.38
2023-04-18T23:27:48.769Z,72.51
2023-04-18T23:30:15.477Z,72.01
2023-04-18T23:32:42.212Z,71.72
2023-04-18T23:35:10.976Z,71.58
2023-04-18T23:37:37.603Z,71.67
2023-04-18T23:40:06.855Z,72.12
2023-04-18T23:42:37.075Z,72.21
2023-04-18T23:45:04.539Z,71.98
2023-04-18T23:47:31.301Z,71.76
2023-04-18T23:49:58.046Z,71.55
2023-04-18T23:52:24.714Z,71.09
2023-04-18T23:54:51.784Z,71.09
2023-04-18T23:57:18.400Z,71.06
2023-04-18T23:59:44.981Z,71.52
